sensor_id;sensor_type;location;lat;lon;timestamp;P1;durP1;ratioP1;P2;durP2;ratioP2
31073;SDS011;17730;53.552;9.940;2023-01-16T00:01:48;8.20;;;4.93;;
31073;SDS011;17730;53.552;9.940;2023-01-16T00:04:14;11.55;;;5.70;;
31073;SDS011;17730;53.552;9.940;2023-01-16T00:06:40;10.82;;;5.13;;
31073;SDS011;17730;53.552;9.940;2023-01-16T00:09:06;11.07;;;5.20;;
31073;SDS011;17730;53.552;9.940;2023-01-16T00:11:32;10.18;;;5.70;;
31073;SDS011;17730;53.552;9.940;2023-01-16T00:13:58;13.98;;;5.47;;
31073;SDS011;17730;53.552;9.940;2023-01-16T00:16:24;11.02;;;5.68;;
31073;SDS011;17730;53.552;9.940;2023-01-16T00:18:51;12.20;;;6.18;;
31073;SDS011;17730;53.552;9.940;2023-01-16T00:21:17;11.18;;;5.72;;
31073;SDS011;17730;53.552;9.940;2023-01-16T00:23:44;11.50;;;5.65;;
31073;SDS011;17730;53.552;9.940;2023-01-16T00:26:11;10.18;;;5.65;;
31073;SDS011;17730;53.552;9.940;2023-01-16T00:28:37;11.70;;;5.82;;
31073;SDS011;17730;53.552;9.940;2023-01-16T00:31:04;11.05;;;5.13;;
31073;SDS011;17730;53.552;9.940;2023-01-16T00:33:30;8.65;;;5.05;;
31073;SDS011;17730;53.552;9.940;2023-01-16T00:35:56;10.45;;;4.82;;
31073;SDS011;17730;53.552;9.940;2023-01-16T00:38:22;12.23;;;4.85;;
31073;SDS011;17730;53.552;9.940;2023-01-16T00:40:47;16.35;;;4.60;;
31073;SDS011;17730;53.552;9.940;2023-01-16T00:43:13;10.48;;;4.40;;
31073;SDS011;17730;53.552;9.940;2023-01-16T00:45:38;9.75;;;4.18;;
31073;SDS011;17730;53.552;9.940;2023-01-16T00:48:05;8.68;;;4.15;;
31073;SDS011;17730;53.552;9.940;2023-01-16T00:50:31;11.20;;;4.47;;
31073;SDS011;17730;53.552;9.940;2023-01-16T00:52:57;7.18;;;3.53;;
31073;SDS011;17730;53.552;9.940;2023-01-16T00:55:23;10.95;;;3.70;;
31073;SDS011;17730;53.552;9.940;2023-01-16T00:57:48;13.50;;;3.70;;
31073;SDS011;17730;53.552;9.940;2023-01-16T01:00:14;8.07;;;3.60;;
31073;SDS011;17730;53.552;9.940;2023-01-16T01:02:42;5.90;;;3.30;;
31073;SDS011;17730;53.552;9.940;2023-01-16T01:05:08;7.72;;;3.42;;
31073;SDS011;17730;53.552;9.940;2023-01-16T01:07:34;11.40;;;3.70;;
31073;SDS011;17730;53.552;9.940;2023-01-16T01:09:59;7.63;;;3.42;;
31073;SDS011;17730;53.552;9.940;2023-01-16T01:12:25;7.90;;;4.15;;
31073;SDS011;17730;53.552;9.940;2023-01-16T01:14:50;12.82;;;3.67;;
31073;SDS011;17730;53.552;9.940;2023-01-16T01:17:16;10.75;;;3.78;;
31073;SDS011;17730;53.552;9.940;2023-01-16T01:19:41;7.65;;;3.63;;
31073;SDS011;17730;53.552;9.940;2023-01-16T01:22:07;9.60;;;3.72;;
31073;SDS011;17730;53.552;9.940;2023-01-16T01:24:33;8.23;;;3.92;;
31073;SDS011;17730;53.552;9.940;2023-01-16T01:26:58;5.82;;;4.00;;
31073;SDS011;17730;53.552;9.940;2023-01-16T01:29:24;13.77;;;4.15;;
31073;SDS011;17730;53.552;9.940;2023-01-16T01:31:49;15.18;;;4.35;;
31073;SDS011;17730;53.552;9.940;2023-01-16T01:34:15;6.38;;;3.65;;
31073;SDS011;17730;53.552;9.940;2023-01-16T01:36:41;9.13;;;4.10;;
31073;SDS011;17730;53.552;9.940;2023-01-16T01:39:06;9.32;;;3.65;;
31073;SDS011;17730;53.552;9.940;2023-01-16T01:41:32;7.53;;;2.95;;
31073;SDS011;17730;53.552;9.940;2023-01-16T01:43:57;12.90;;;3.03;;
31073;SDS011;17730;53.552;9.940;2023-01-16T01:46:25;9.32;;;3.03;;
31073;SDS011;17730;53.552;9.940;2023-01-16T01:51:56;7.07;;;2.50;;
31073;SDS011;17730;53.552;9.940;2023-01-16T01:54:33;4.07;;;2.30;;
31073;SDS011;17730;53.552;9.940;2023-01-16T01:59:38;7.25;;;2.05;;
31073;SDS011;17730;53.552;9.940;2023-01-16T02:02:09;7.30;;;2.10;;
31073;SDS011;17730;53.552;9.940;2023-01-16T02:04:38;4.97;;;1.88;;
31073;SDS011;17730;53.552;9.940;2023-01-16T02:07:07;8.25;;;2.17;;
31073;SDS011;17730;53.552;9.940;2023-01-16T02:09:34;6.82;;;1.90;;
31073;SDS011;17730;53.552;9.940;2023-01-16T02:12:02;5.63;;;1.48;;
31073;SDS011;17730;53.552;9.940;2023-01-16T02:14:33;7.22;;;1.70;;
31073;SDS011;17730;53.552;9.940;2023-01-16T02:17:12;4.80;;;1.88;;
31073;SDS011;17730;53.552;9.940;2023-01-16T02:28:10;6.97;;;2.13;;
31073;SDS011;17730;53.552;9.940;2023-01-16T02:45:10;7.55;;;1.90;;
31073;SDS011;17730;53.552;9.940;2023-01-16T02:58:15;5.40;;;1.45;;
31073;SDS011;17730;53.552;9.940;2023-01-16T03:00:50;4.00;;;1.67;;
31073;SDS011;17730;53.552;9.940;2023-01-16T03:06:11;5.72;;;1.50;;
31073;SDS011;17730;53.552;9.940;2023-01-16T03:08:47;4.70;;;1.60;;
31073;SDS011;17730;53.552;9.940;2023-01-16T03:11:29;3.42;;;1.38;;
31073;SDS011;17730;53.552;9.940;2023-01-16T03:19:05;4.18;;;1.13;;
31073;SDS011;17730;53.552;9.940;2023-01-16T03:21:40;6.43;;;1.95;;
31073;SDS011;17730;53.552;9.940;2023-01-16T03:24:31;2.75;;;1.40;;
31073;SDS011;17730;53.552;9.940;2023-01-16T03:30:15;5.78;;;1.70;;
31073;SDS011;17730;53.552;9.940;2023-01-16T03:32:59;7.93;;;1.92;;
31073;SDS011;17730;53.552;9.940;2023-01-16T03:35:34;12.65;;;1.90;;
31073;SDS011;17730;53.552;9.940;2023-01-16T03:38:07;7.60;;;1.60;;
31073;SDS011;17730;53.552;9.940;2023-01-16T03:40:38;6.13;;;1.55;;
31073;SDS011;17730;53.552;9.940;2023-01-16T03:43:12;6.18;;;1.50;;
31073;SDS011;17730;53.552;9.940;2023-01-16T03:48:19;4.28;;;1.83;;
31073;SDS011;17730;53.552;9.940;2023-01-16T03:51:07;6.10;;;2.10;;
31073;SDS011;17730;53.552;9.940;2023-01-16T03:53:38;5.43;;;1.65;;
31073;SDS011;17730;53.552;9.940;2023-01-16T03:56:14;6.43;;;1.58;;
31073;SDS011;17730;53.552;9.940;2023-01-16T03:58:48;10.45;;;1.70;;
31073;SDS011;17730;53.552;9.940;2023-01-16T04:01:23;7.38;;;1.80;;
31073;SDS011;17730;53.552;9.940;2023-01-16T04:08:59;12.60;;;1.40;;
31073;SDS011;17730;53.552;9.940;2023-01-16T04:11:30;10.75;;;2.13;;
31073;SDS011;17730;53.552;9.940;2023-01-16T04:13:58;5.63;;;1.52;;
31073;SDS011;17730;53.552;9.940;2023-01-16T04:16:26;3.88;;;1.30;;
31073;SDS011;17730;53.552;9.940;2023-01-16T04:18:54;9.20;;;1.45;;
31073;SDS011;17730;53.552;9.940;2023-01-16T04:21:24;5.43;;;1.48;;
31073;SDS011;17730;53.552;9.940;2023-01-16T04:23:52;7.28;;;1.65;;
31073;SDS011;17730;53.552;9.940;2023-01-16T04:26:20;3.40;;;1.50;;
31073;SDS011;17730;53.552;9.940;2023-01-16T04:28:45;4.80;;;1.40;;
31073;SDS011;17730;53.552;9.940;2023-01-16T04:31:11;6.68;;;1.30;;
31073;SDS011;17730;53.552;9.940;2023-01-16T04:33:36;4.20;;;1.05;;
31073;SDS011;17730;53.552;9.940;2023-01-16T04:36:02;4.55;;;1.35;;
31073;SDS011;17730;53.552;9.940;2023-01-16T04:38:28;8.73;;;1.85;;
31073;SDS011;17730;53.552;9.940;2023-01-16T04:40:53;6.35;;;1.52;;
31073;SDS011;17730;53.552;9.940;2023-01-16T04:43:19;2.55;;;1.10;;
31073;SDS011;17730;53.552;9.940;2023-01-16T04:45:46;10.70;;;1.75;;
31073;SDS011;17730;53.552;9.940;2023-01-16T04:48:11;6.57;;;2.20;;
31073;SDS011;17730;53.552;9.940;2023-01-16T04:50:37;6.40;;;1.50;;
31073;SDS011;17730;53.552;9.940;2023-01-16T04:53:03;7.88;;;1.38;;
31073;SDS011;17730;53.552;9.940;2023-01-16T04:55:29;6.50;;;1.40;;
31073;SDS011;17730;53.552;9.940;2023-01-16T04:57:54;4.30;;;1.63;;
31073;SDS011;17730;53.552;9.940;2023-01-16T05:00:20;12.32;;;1.35;;
31073;SDS011;17730;53.552;9.940;2023-01-16T05:02:46;6.45;;;1.17;;
31073;SDS011;17730;53.552;9.940;2023-01-16T05:05:11;4.93;;;1.17;;
31073;SDS011;17730;53.552;9.940;2023-01-16T05:07:37;3.53;;;1.13;;
31073;SDS011;17730;53.552;9.940;2023-01-16T05:10:02;5.65;;;1.88;;
31073;SDS011;17730;53.552;9.940;2023-01-16T05:12:28;7.22;;;1.58;;
31073;SDS011;17730;53.552;9.940;2023-01-16T05:14:54;6.18;;;1.42;;
31073;SDS011;17730;53.552;9.940;2023-01-16T05:17:19;8.32;;;1.25;;
31073;SDS011;17730;53.552;9.940;2023-01-16T05:19:49;7.30;;;1.20;;
31073;SDS011;17730;53.552;9.940;2023-01-16T05:22:14;2.70;;;1.20;;
31073;SDS011;17730;53.552;9.940;2023-01-16T05:24:40;3.28;;;1.08;;
31073;SDS011;17730;53.552;9.940;2023-01-16T05:27:05;7.10;;;1.35;;
31073;SDS011;17730;53.552;9.940;2023-01-16T05:29:31;5.93;;;1.75;;
31073;SDS011;17730;53.552;9.940;2023-01-16T05:31:57;8.43;;;1.58;;
31073;SDS011;17730;53.552;9.940;2023-01-16T05:34:22;11.55;;;2.35;;
31073;SDS011;17730;53.552;9.940;2023-01-16T05:36:48;6.40;;;1.48;;
31073;SDS011;17730;53.552;9.940;2023-01-16T05:39:13;4.88;;;1.23;;
31073;SDS011;17730;53.552;9.940;2023-01-16T05:41:39;10.45;;;2.28;;
31073;SDS011;17730;53.552;9.940;2023-01-16T05:44:04;7.38;;;1.52;;
31073;SDS011;17730;53.552;9.940;2023-01-16T05:46:30;5.97;;;1.00;;
31073;SDS011;17730;53.552;9.940;2023-01-16T05:48:55;7.28;;;1.70;;
31073;SDS011;17730;53.552;9.940;2023-01-16T05:51:21;5.82;;;1.75;;
31073;SDS011;17730;53.552;9.940;2023-01-16T05:53:50;4.72;;;1.33;;
31073;SDS011;17730;53.552;9.940;2023-01-16T05:56:17;5.30;;;1.35;;
31073;SDS011;17730;53.552;9.940;2023-01-16T05:58:47;9.70;;;1.25;;
31073;SDS011;17730;53.552;9.940;2023-01-16T06:01:13;7.32;;;1.30;;
31073;SDS011;17730;53.552;9.940;2023-01-16T06:03:42;10.10;;;1.30;;
31073;SDS011;17730;53.552;9.940;2023-01-16T06:06:07;5.03;;;1.42;;
31073;SDS011;17730;53.552;9.940;2023-01-16T06:08:33;6.97;;;1.30;;
31073;SDS011;17730;53.552;9.940;2023-01-16T06:10:59;10.55;;;2.22;;
31073;SDS011;17730;53.552;9.940;2023-01-16T06:13:25;6.65;;;1.50;;
31073;SDS011;17730;53.552;9.940;2023-01-16T06:15:50;3.92;;;1.13;;
31073;SDS011;17730;53.552;9.940;2023-01-16T06:18:16;7.45;;;1.40;;
31073;SDS011;17730;53.552;9.940;2023-01-16T06:20:41;7.43;;;1.40;;
31073;SDS011;17730;53.552;9.940;2023-01-16T06:23:08;9.48;;;1.98;;
31073;SDS011;17730;53.552;9.940;2023-01-16T06:25:34;9.65;;;1.60;;
31073;SDS011;17730;53.552;9.940;2023-01-16T06:27:59;6.13;;;1.45;;
31073;SDS011;17730;53.552;9.940;2023-01-16T06:30:25;7.80;;;1.92;;
31073;SDS011;17730;53.552;9.940;2023-01-16T06:32:50;6.47;;;1.30;;
31073;SDS011;17730;53.552;9.940;2023-01-16T06:35:16;5.75;;;1.30;;
31073;SDS011;17730;53.552;9.940;2023-01-16T06:37:42;8.40;;;1.38;;
31073;SDS011;17730;53.552;9.940;2023-01-16T06:40:08;3.85;;;1.10;;
31073;SDS011;17730;53.552;9.940;2023-01-16T06:42:35;4.88;;;1.15;;
31073;SDS011;17730;53.552;9.940;2023-01-16T06:45:00;3.67;;;1.45;;
31073;SDS011;17730;53.552;9.940;2023-01-16T06:47:26;2.72;;;1.40;;
31073;SDS011;17730;53.552;9.940;2023-01-16T06:49:52;4.93;;;1.50;;
31073;SDS011;17730;53.552;9.940;2023-01-16T06:52:18;8.07;;;1.63;;
31073;SDS011;17730;53.552;9.940;2023-01-16T06:54:44;6.38;;;1.05;;
31073;SDS011;17730;53.552;9.940;2023-01-16T06:57:09;6.60;;;2.63;;
31073;SDS011;17730;53.552;9.940;2023-01-16T06:59:35;5.63;;;1.83;;
31073;SDS011;17730;53.552;9.940;2023-01-16T07:02:00;15.18;;;1.50;;
31073;SDS011;17730;53.552;9.940;2023-01-16T07:04:26;6.13;;;1.40;;
31073;SDS011;17730;53.552;9.940;2023-01-16T07:06:52;8.23;;;1.38;;
31073;SDS011;17730;53.552;9.940;2023-01-16T07:09:17;5.47;;;1.83;;
31073;SDS011;17730;53.552;9.940;2023-01-16T07:11:43;7.80;;;1.40;;
31073;SDS011;17730;53.552;9.940;2023-01-16T07:14:08;8.60;;;1.63;;
31073;SDS011;17730;53.552;9.940;2023-01-16T07:16:53;8.00;;;2.00;;
31073;SDS011;17730;53.552;9.940;2023-01-16T07:19:37;8.13;;;1.40;;
31073;SDS011;17730;53.552;9.940;2023-01-16T07:22:21;6.35;;;1.52;;
31073;SDS011;17730;53.552;9.940;2023-01-16T07:24:59;8.18;;;1.75;;
31073;SDS011;17730;53.552;9.940;2023-01-16T07:27:27;9.52;;;1.60;;
31073;SDS011;17730;53.552;9.940;2023-01-16T07:29:54;5.10;;;1.33;;
31073;SDS011;17730;53.552;9.940;2023-01-16T07:32:20;5.13;;;1.15;;
31073;SDS011;17730;53.552;9.940;2023-01-16T07:34:46;4.05;;;1.50;;
31073;SDS011;17730;53.552;9.940;2023-01-16T07:37:12;6.57;;;1.50;;
31073;SDS011;17730;53.552;9.940;2023-01-16T07:39:37;8.88;;;1.60;;
31073;SDS011;17730;53.552;9.940;2023-01-16T07:42:03;7.05;;;2.00;;
31073;SDS011;17730;53.552;9.940;2023-01-16T07:44:30;5.22;;;1.60;;
31073;SDS011;17730;53.552;9.940;2023-01-16T07:46:55;6.97;;;1.20;;
31073;SDS011;17730;53.552;9.940;2023-01-16T07:49:21;6.15;;;1.23;;
31073;SDS011;17730;53.552;9.940;2023-01-16T07:51:46;4.68;;;1.33;;
31073;SDS011;17730;53.552;9.940;2023-01-16T07:54:12;9.00;;;1.38;;
31073;SDS011;17730;53.552;9.940;2023-01-16T07:56:38;12.82;;;1.35;;
31073;SDS011;17730;53.552;9.940;2023-01-16T07:59:04;9.10;;;1.48;;
31073;SDS011;17730;53.552;9.940;2023-01-16T08:01:30;5.15;;;1.35;;
31073;SDS011;17730;53.552;9.940;2023-01-16T08:03:56;6.78;;;1.10;;
31073;SDS011;17730;53.552;9.940;2023-01-16T08:06:21;7.53;;;1.02;;
31073;SDS011;17730;53.552;9.940;2023-01-16T08:08:47;7.05;;;1.70;;
31073;SDS011;17730;53.552;9.940;2023-01-16T08:11:13;9.50;;;2.08;;
31073;SDS011;17730;53.552;9.940;2023-01-16T08:13:57;7.78;;;1.75;;
31073;SDS011;17730;53.552;9.940;2023-01-16T08:16:22;7.07;;;1.35;;
31073;SDS011;17730;53.552;9.940;2023-01-16T08:18:48;4.30;;;1.50;;
31073;SDS011;17730;53.552;9.940;2023-01-16T08:21:15;3.83;;;1.30;;
31073;SDS011;17730;53.552;9.940;2023-01-16T08:23:41;3.50;;;1.02;;
31073;SDS011;17730;53.552;9.940;2023-01-16T08:26:07;4.35;;;0.90;;
31073;SDS011;17730;53.552;9.940;2023-01-16T08:28:33;4.95;;;0.90;;
31073;SDS011;17730;53.552;9.940;2023-01-16T08:31:06;7.18;;;1.52;;
31073;SDS011;17730;53.552;9.940;2023-01-16T08:33:37;11.13;;;1.48;;
31073;SDS011;17730;53.552;9.940;2023-01-16T08:36:04;6.20;;;1.30;;
31073;SDS011;17730;53.552;9.940;2023-01-16T08:38:31;4.90;;;1.77;;
31073;SDS011;17730;53.552;9.940;2023-01-16T08:40:57;7.35;;;1.45;;
31073;SDS011;17730;53.552;9.940;2023-01-16T08:43:23;7.63;;;1.98;;
31073;SDS011;17730;53.552;9.940;2023-01-16T08:46:18;7.55;;;1.58;;
31073;SDS011;17730;53.552;9.940;2023-01-16T08:49:08;9.73;;;3.22;;
31073;SDS011;17730;53.552;9.940;2023-01-16T08:51:56;5.32;;;1.33;;
31073;SDS011;17730;53.552;9.940;2023-01-16T08:54:22;4.57;;;1.40;;
31073;SDS011;17730;53.552;9.940;2023-01-16T08:56:48;5.57;;;1.35;;
31073;SDS011;17730;53.552;9.940;2023-01-16T08:59:14;6.20;;;1.10;;
31073;SDS011;17730;53.552;9.940;2023-01-16T09:01:40;4.88;;;1.20;;
31073;SDS011;17730;53.552;9.940;2023-01-16T09:04:06;4.32;;;1.30;;
31073;SDS011;17730;53.552;9.940;2023-01-16T09:06:33;9.25;;;2.28;;
31073;SDS011;17730;53.552;9.940;2023-01-16T09:09:02;9.05;;;1.65;;
31073;SDS011;17730;53.552;9.940;2023-01-16T09:11:29;4.72;;;1.20;;
31073;SDS011;17730;53.552;9.940;2023-01-16T09:14:13;7.32;;;1.60;;
31073;SDS011;17730;53.552;9.940;2023-01-16T09:16:38;4.70;;;1.33;;
31073;SDS011;17730;53.552;9.940;2023-01-16T09:19:04;4.20;;;1.40;;
31073;SDS011;17730;53.552;9.940;2023-01-16T09:21:29;6.43;;;1.13;;
31073;SDS011;17730;53.552;9.940;2023-01-16T09:23:55;5.18;;;1.60;;
31073;SDS011;17730;53.552;9.940;2023-01-16T09:26:20;8.02;;;1.45;;
31073;SDS011;17730;53.552;9.940;2023-01-16T09:28:46;5.28;;;2.00;;
31073;SDS011;17730;53.552;9.940;2023-01-16T09:31:12;9.95;;;1.38;;
31073;SDS011;17730;53.552;9.940;2023-01-16T09:33:37;6.25;;;1.38;;
31073;SDS011;17730;53.552;9.940;2023-01-16T09:36:03;3.65;;;1.58;;
31073;SDS011;17730;53.552;9.940;2023-01-16T09:38:29;9.07;;;1.90;;
31073;SDS011;17730;53.552;9.940;2023-01-16T09:40:56;6.07;;;1.77;;
31073;SDS011;17730;53.552;9.940;2023-01-16T09:46:17;4.13;;;1.08;;
31073;SDS011;17730;53.552;9.940;2023-01-16T09:49:00;3.25;;;1.17;;
31073;SDS011;17730;53.552;9.940;2023-01-16T09:51:47;7.47;;;1.35;;
31073;SDS011;17730;53.552;9.940;2023-01-16T09:54:39;6.65;;;1.58;;
31073;SDS011;17730;53.552;9.940;2023-01-16T09:57:27;4.70;;;1.60;;
31073;SDS011;17730;53.552;9.940;2023-01-16T10:00:15;2.45;;;1.20;;
31073;SDS011;17730;53.552;9.940;2023-01-16T10:02:42;5.45;;;1.20;;
31073;SDS011;17730;53.552;9.940;2023-01-16T10:05:08;3.80;;;1.10;;
31073;SDS011;17730;53.552;9.940;2023-01-16T10:10:25;5.07;;;1.55;;
31073;SDS011;17730;53.552;9.940;2023-01-16T10:13:18;3.55;;;1.38;;
31073;SDS011;17730;53.552;9.940;2023-01-16T10:16:07;4.30;;;1.33;;
31073;SDS011;17730;53.552;9.940;2023-01-16T10:30:08;4.38;;;1.10;;
31073;SDS011;17730;53.552;9.940;2023-01-16T10:35:48;7.40;;;1.50;;
31073;SDS011;17730;53.552;9.940;2023-01-16T10:44:02;7.80;;;1.77;;
31073;SDS011;17730;53.552;9.940;2023-01-16T10:46:52;6.80;;;1.20;;
31073;SDS011;17730;53.552;9.940;2023-01-16T10:49:37;2.17;;;1.20;;
31073;SDS011;17730;53.552;9.940;2023-01-16T10:52:03;5.45;;;1.20;;
31073;SDS011;17730;53.552;9.940;2023-01-16T10:54:29;9.70;;;1.50;;
31073;SDS011;17730;53.552;9.940;2023-01-16T10:56:55;2.30;;;1.15;;
31073;SDS011;17730;53.552;9.940;2023-01-16T10:59:26;5.38;;;1.65;;
31073;SDS011;17730;53.552;9.940;2023-01-16T11:01:53;6.13;;;2.40;;
31073;SDS011;17730;53.552;9.940;2023-01-16T11:04:23;6.60;;;2.20;;
31073;SDS011;17730;53.552;9.940;2023-01-16T11:07:13;4.63;;;2.13;;
31073;SDS011;17730;53.552;9.940;2023-01-16T11:09:42;4.72;;;1.88;;
31073;SDS011;17730;53.552;9.940;2023-01-16T11:12:10;5.63;;;2.10;;
31073;SDS011;17730;53.552;9.940;2023-01-16T11:15:14;7.05;;;1.77;;
31073;SDS011;17730;53.552;9.940;2023-01-16T11:18:07;8.80;;;1.90;;
31073;SDS011;17730;53.552;9.940;2023-01-16T11:23:21;7.57;;;1.42;;
31073;SDS011;17730;53.552;9.940;2023-01-16T11:25:49;3.70;;;1.30;;
31073;SDS011;17730;53.552;9.940;2023-01-16T11:28:20;5.43;;;1.30;;
31073;SDS011;17730;53.552;9.940;2023-01-16T11:30:52;6.40;;;1.35;;
31073;SDS011;17730;53.552;9.940;2023-01-16T11:33:27;4.47;;;1.35;;
31073;SDS011;17730;53.552;9.940;2023-01-16T11:36:01;8.95;;;2.17;;
31073;SDS011;17730;53.552;9.940;2023-01-16T11:38:29;4.88;;;1.60;;
31073;SDS011;17730;53.552;9.940;2023-01-16T11:40:58;2.42;;;1.35;;
31073;SDS011;17730;53.552;9.940;2023-01-16T11:43:28;5.20;;;1.50;;
31073;SDS011;17730;53.552;9.940;2023-01-16T11:46:21;5.20;;;1.30;;
31073;SDS011;17730;53.552;9.940;2023-01-16T11:48:54;5.47;;;1.20;;
31073;SDS011;17730;53.552;9.940;2023-01-16T11:51:29;5.72;;;1.90;;
31073;SDS011;17730;53.552;9.940;2023-01-16T11:53:56;6.82;;;1.42;;
31073;SDS011;17730;53.552;9.940;2023-01-16T11:56:41;3.55;;;1.30;;
31073;SDS011;17730;53.552;9.940;2023-01-16T12:13:14;2.92;;;0.90;;
31073;SDS011;17730;53.552;9.940;2023-01-16T12:16:11;5.22;;;1.45;;
31073;SDS011;17730;53.552;9.940;2023-01-16T12:30:25;2.05;;;0.80;;
31073;SDS011;17730;53.552;9.940;2023-01-16T12:35:26;2.63;;;1.00;;
31073;SDS011;17730;53.552;9.940;2023-01-16T12:38:11;2.90;;;1.20;;
31073;SDS011;17730;53.552;9.940;2023-01-16T12:46:44;4.78;;;1.60;;
31073;SDS011;17730;53.552;9.940;2023-01-16T12:52:33;6.75;;;1.80;;
31073;SDS011;17730;53.552;9.940;2023-01-16T12:58:02;4.82;;;1.42;;
31073;SDS011;17730;53.552;9.940;2023-01-16T13:01:01;4.35;;;1.50;;
31073;SDS011;17730;53.552;9.940;2023-01-16T13:06:55;6.82;;;1.60;;
31073;SDS011;17730;53.552;9.940;2023-01-16T13:11:51;5.65;;;1.83;;
31073;SDS011;17730;53.552;9.940;2023-01-16T13:14:40;5.13;;;1.70;;
31073;SDS011;17730;53.552;9.940;2023-01-16T13:17:11;4.50;;;0.95;;
31073;SDS011;17730;53.552;9.940;2023-01-16T13:19:48;2.85;;;1.10;;
31073;SDS011;17730;53.552;9.940;2023-01-16T13:30:36;6.95;;;1.35;;
31073;SDS011;17730;53.552;9.940;2023-01-16T13:33:07;3.67;;;1.33;;
31073;SDS011;17730;53.552;9.940;2023-01-16T13:41:25;7.65;;;1.50;;
31073;SDS011;17730;53.552;9.940;2023-01-16T13:47:02;6.57;;;1.25;;
31073;SDS011;17730;53.552;9.940;2023-01-16T13:49:31;2.03;;;1.27;;
31073;SDS011;17730;53.552;9.940;2023-01-16T13:51:56;3.08;;;1.58;;
31073;SDS011;17730;53.552;9.940;2023-01-16T13:54:35;4.03;;;1.52;;
31073;SDS011;17730;53.552;9.940;2023-01-16T13:57:07;5.90;;;1.20;;
31073;SDS011;17730;53.552;9.940;2023-01-16T13:59:50;3.30;;;1.05;;
31073;SDS011;17730;53.552;9.940;2023-01-16T14:10:43;8.88;;;1.88;;
31073;SDS011;17730;53.552;9.940;2023-01-16T14:13:27;1.55;;;0.90;;
31073;SDS011;17730;53.552;9.940;2023-01-16T14:23:54;5.03;;;1.40;;
31073;SDS011;17730;53.552;9.940;2023-01-16T14:29:22;4.95;;;1.27;;
31073;SDS011;17730;53.552;9.940;2023-01-16T14:32:02;3.63;;;1.23;;
31073;SDS011;17730;53.552;9.940;2023-01-16T14:34:33;6.22;;;1.23;;
31073;SDS011;17730;53.552;9.940;2023-01-16T14:37:06;3.38;;;1.08;;
31073;SDS011;17730;53.552;9.940;2023-01-16T14:39:48;8.07;;;1.70;;
31073;SDS011;17730;53.552;9.940;2023-01-16T14:46:11;5.50;;;1.63;;
31073;SDS011;17730;53.552;9.940;2023-01-16T14:48:45;6.72;;;1.48;;
31073;SDS011;17730;53.552;9.940;2023-01-16T14:51:31;8.27;;;2.03;;
31073;SDS011;17730;53.552;9.940;2023-01-16T14:57:22;4.68;;;1.60;;
31073;SDS011;17730;53.552;9.940;2023-01-16T15:05:14;11.30;;;2.33;;
31073;SDS011;17730;53.552;9.940;2023-01-16T15:07:50;6.80;;;1.80;;
31073;SDS011;17730;53.552;9.940;2023-01-16T15:10:25;7.13;;;2.47;;
31073;SDS011;17730;53.552;9.940;2023-01-16T15:13:15;4.18;;;1.40;;
31073;SDS011;17730;53.552;9.940;2023-01-16T15:18:19;4.30;;;1.92;;
31073;SDS011;17730;53.552;9.940;2023-01-16T15:21:10;7.38;;;1.50;;
31073;SDS011;17730;53.552;9.940;2023-01-16T15:24:05;7.20;;;1.60;;
31073;SDS011;17730;53.552;9.940;2023-01-16T15:31:47;7.05;;;1.52;;
31073;SDS011;17730;53.552;9.940;2023-01-16T15:34:27;6.38;;;1.60;;
31073;SDS011;17730;53.552;9.940;2023-01-16T15:36:55;3.50;;;1.58;;
31073;SDS011;17730;53.552;9.940;2023-01-16T15:41:59;5.57;;;1.63;;
31073;SDS011;17730;53.552;9.940;2023-01-16T15:44:44;5.10;;;1.52;;
31073;SDS011;17730;53.552;9.940;2023-01-16T15:52:56;3.63;;;1.65;;
31073;SDS011;17730;53.552;9.940;2023-01-16T15:55:25;3.33;;;1.17;;
31073;SDS011;17730;53.552;9.940;2023-01-16T15:58:00;3.72;;;1.33;;
31073;SDS011;17730;53.552;9.940;2023-01-16T16:00:37;7.65;;;2.20;;
31073;SDS011;17730;53.552;9.940;2023-01-16T16:03:14;6.30;;;1.50;;
31073;SDS011;17730;53.552;9.940;2023-01-16T16:05:45;5.47;;;1.70;;
31073;SDS011;17730;53.552;9.940;2023-01-16T16:08:25;5.77;;;1.67;;
31073;SDS011;17730;53.552;9.940;2023-01-16T16:10:53;3.33;;;1.63;;
31073;SDS011;17730;53.552;9.940;2023-01-16T16:13:40;5.38;;;1.50;;
31073;SDS011;17730;53.552;9.940;2023-01-16T16:16:15;6.38;;;1.70;;
31073;SDS011;17730;53.552;9.940;2023-01-16T16:19:05;3.17;;;1.25;;
31073;SDS011;17730;53.552;9.940;2023-01-16T16:21:44;3.85;;;1.48;;
31073;SDS011;17730;53.552;9.940;2023-01-16T16:24:32;7.22;;;1.40;;
31073;SDS011;17730;53.552;9.940;2023-01-16T16:27:03;8.85;;;1.85;;
31073;SDS011;17730;53.552;9.940;2023-01-16T16:29:31;6.57;;;1.35;;
31073;SDS011;17730;53.552;9.940;2023-01-16T16:32:00;6.65;;;1.38;;
31073;SDS011;17730;53.552;9.940;2023-01-16T16:34:30;5.35;;;1.50;;
31073;SDS011;17730;53.552;9.940;2023-01-16T16:36:57;3.80;;;1.65;;
31073;SDS011;17730;53.552;9.940;2023-01-16T16:42:55;4.78;;;1.55;;
31073;SDS011;17730;53.552;9.940;2023-01-16T16:45:18;4.78;;;1.83;;
31073;SDS011;17730;53.552;9.940;2023-01-16T16:47:45;5.57;;;1.45;;
31073;SDS011;17730;53.552;9.940;2023-01-16T16:53:04;7.47;;;1.65;;
31073;SDS011;17730;53.552;9.940;2023-01-16T16:56:09;6.57;;;1.30;;
31073;SDS011;17730;53.552;9.940;2023-01-16T16:58:41;6.00;;;1.77;;
31073;SDS011;17730;53.552;9.940;2023-01-16T17:01:15;8.67;;;1.83;;
31073;SDS011;17730;53.552;9.940;2023-01-16T17:03:42;3.88;;;1.70;;
31073;SDS011;17730;53.552;9.940;2023-01-16T17:06:15;4.25;;;1.30;;
31073;SDS011;17730;53.552;9.940;2023-01-16T17:08:43;3.20;;;1.30;;
31073;SDS011;17730;53.552;9.940;2023-01-16T17:11:13;6.47;;;1.83;;
31073;SDS011;17730;53.552;9.940;2023-01-16T17:13:39;6.28;;;1.35;;
31073;SDS011;17730;53.552;9.940;2023-01-16T17:16:07;3.00;;;1.00;;
31073;SDS011;17730;53.552;9.940;2023-01-16T17:18:46;2.88;;;1.25;;
31073;SDS011;17730;53.552;9.940;2023-01-16T17:21:14;3.85;;;1.05;;
31073;SDS011;17730;53.552;9.940;2023-01-16T17:23:42;5.20;;;1.00;;
31073;SDS011;17730;53.552;9.940;2023-01-16T17:26:08;3.78;;;1.83;;
31073;SDS011;17730;53.552;9.940;2023-01-16T17:28:36;3.20;;;1.20;;
31073;SDS011;17730;53.552;9.940;2023-01-16T17:31:05;4.93;;;1.48;;
31073;SDS011;17730;53.552;9.940;2023-01-16T17:33:34;6.80;;;1.30;;
31073;SDS011;17730;53.552;9.940;2023-01-16T17:36:00;5.13;;;1.33;;
31073;SDS011;17730;53.552;9.940;2023-01-16T17:38:39;3.72;;;1.30;;
31073;SDS011;17730;53.552;9.940;2023-01-16T17:41:05;2.67;;;1.42;;
31073;SDS011;17730;53.552;9.940;2023-01-16T17:43:42;3.20;;;1.40;;
31073;SDS011;17730;53.552;9.940;2023-01-16T17:46:26;5.78;;;2.22;;
31073;SDS011;17730;53.552;9.940;2023-01-16T17:48:51;4.20;;;1.20;;
31073;SDS011;17730;53.552;9.940;2023-01-16T17:51:17;9.93;;;2.03;;
31073;SDS011;17730;53.552;9.940;2023-01-16T17:53:48;8.47;;;1.90;;
31073;SDS011;17730;53.552;9.940;2023-01-16T17:56:14;4.53;;;1.05;;
31073;SDS011;17730;53.552;9.940;2023-01-16T17:58:41;2.97;;;1.15;;
31073;SDS011;17730;53.552;9.940;2023-01-16T18:01:11;6.78;;;1.70;;
31073;SDS011;17730;53.552;9.940;2023-01-16T18:03:38;5.72;;;1.83;;
31073;SDS011;17730;53.552;9.940;2023-01-16T18:06:08;4.47;;;1.70;;
31073;SDS011;17730;53.552;9.940;2023-01-16T18:08:34;2.75;;;1.42;;
31073;SDS011;17730;53.552;9.940;2023-01-16T18:11:01;8.57;;;2.30;;
31073;SDS011;17730;53.552;9.940;2023-01-16T18:13:47;8.50;;;2.78;;
31073;SDS011;17730;53.552;9.940;2023-01-16T18:16:32;7.15;;;1.33;;
31073;SDS011;17730;53.552;9.940;2023-01-16T18:19:17;2.83;;;1.60;;
31073;SDS011;17730;53.552;9.940;2023-01-16T18:21:42;6.75;;;1.50;;
31073;SDS011;17730;53.552;9.940;2023-01-16T18:24:27;8.75;;;2.00;;
31073;SDS011;17730;53.552;9.940;2023-01-16T18:26:53;4.40;;;2.10;;
31073;SDS011;17730;53.552;9.940;2023-01-16T18:29:19;5.18;;;2.05;;
31073;SDS011;17730;53.552;9.940;2023-01-16T18:31:44;4.43;;;1.98;;